sensor_id;sensor_type;location;lat;lon;timestamp;pressure;altitude;pressure_sealevel;temperature;humidity
61906;BME280;47863;55.766;37.672;2022-10-24T21:37:35;100019.28;;;2.88;66.80
61906;BME280;47863;55.766;37.672;2022-10-24T21:40:01;100024.56;;;2.88;65.94
61906;BME280;47863;55.766;37.672;2022-10-24T21:42:29;100024.69;;;2.87;66.15
61906;BME280;47863;55.766;37.672;2022-10-24T21:44:55;100032.63;;;2.87;66.36
61906;BME280;47863;55.766;37.672;2022-10-24T21:47:21;100029.34;;;2.83;66.57
61906;BME280;47863;55.766;37.672;2022-10-24T21:49:46;100029.34;;;2.83;66.98
61906;BME280;47863;55.766;37.672;2022-10-24T21:52:12;100030.50;;;2.79;66.22
61906;BME280;47863;55.766;37.672;2022-10-24T21:54:37;100032.94;;;2.82;67.55
61906;BME280;47863;55.766;37.672;2022-10-24T21:57:03;100041.75;;;2.83;66.82
61906;BME280;47863;55.766;37.672;2022-10-24T21:59:28;100031.44;;;2.78;67.02
61906;BME280;47863;55.766;37.672;2022-10-24T22:01:54;100043.31;;;2.85;67.66
61906;BME280;47863;55.766;37.672;2022-10-24T22:04:19;100043.75;;;2.79;66.76
61906;BME280;47863;55.766;37.672;2022-10-24T22:06:46;100046.16;;;2.82;67.89
61906;BME280;47863;55.766;37.672;2022-10-24T22:09:16;100041.28;;;2.76;67.60
61906;BME280;47863;55.766;37.672;2022-10-24T22:11:42;100031.97;;;2.70;67.11
61906;BME280;47863;55.766;37.672;2022-10-24T22:14:09;100042.25;;;2.75;67.13
61906;BME280;47863;55.766;37.672;2022-10-24T22:16:35;100044.34;;;2.70;67.47
61906;BME280;47863;55.766;37.672;2022-10-24T22:19:03;100049.44;;;2.73;67.36
61906;BME280;47863;55.766;37.672;2022-10-24T22:21:36;100063.63;;;2.72;67.46
61906;BME280;47863;55.766;37.672;2022-10-24T22:24:16;100061.94;;;2.71;67.51
61906;BME280;47863;55.766;37.672;2022-10-24T22:26:43;100044.88;;;2.62;67.58
61906;BME280;47863;55.766;37.672;2022-10-24T22:29:12;100055.91;;;2.69;68.11
61906;BME280;47863;55.766;37.672;2022-10-24T22:31:37;100058.66;;;2.67;68.19
61906;BME280;47863;55.766;37.672;2022-10-24T22:34:03;100054.53;;;2.63;68.43
61906;BME280;47863;55.766;37.672;2022-10-24T22:37:07;100056.00;;;2.67;67.44
61906;BME280;47863;55.766;37.672;2022-10-24T22:39:37;100065.31;;;2.73;67.66
61906;BME280;47863;55.766;37.672;2022-10-24T22:42:05;100064.59;;;2.71;67.21
61906;BME280;47863;55.766;37.672;2022-10-24T22:44:32;100070.63;;;2.73;68.09
61906;BME280;47863;55.766;37.672;2022-10-24T22:47:02;100064.47;;;2.72;67.86
61906;BME280;47863;55.766;37.672;2022-10-24T22:49:48;100064.47;;;2.72;67.69
61906;BME280;47863;55.766;37.672;2022-10-24T22:52:15;100068.81;;;2.73;68.00
61906;BME280;47863;55.766;37.672;2022-10-24T22:54:41;100055.47;;;2.62;68.40
61906;BME280;47863;55.766;37.672;2022-10-24T22:57:07;100066.25;;;2.72;67.93
61906;BME280;47863;55.766;37.672;2022-10-24T22:59:33;100071.34;;;2.75;68.20
61906;BME280;47863;55.766;37.672;2022-10-24T23:05:05;100071.34;;;2.75;67.78
61906;BME280;47863;55.766;37.672;2022-10-24T23:10:11;100082.69;;;2.77;68.73
61906;BME280;47863;55.766;37.672;2022-10-24T23:12:39;100080.97;;;2.76;68.14
61906;BME280;47863;55.766;37.672;2022-10-24T23:15:05;100075.69;;;2.76;68.24
61906;BME280;47863;55.766;37.672;2022-10-24T23:17:32;100074.41;;;2.69;68.26
61906;BME280;47863;55.766;37.672;2022-10-24T23:19:58;100070.63;;;2.73;68.44
